Time;durP1;ratioP1;P1;durP2;ratioP2;P2;SDS_P1;SDS_P2;PMS_P1;PMS_P2;Temp;Humidity;BMP_temperature;BMP_pressure;BME280_temperature;BME280_humidity;BME280_pressure;Samples;Min_cycle;Max_cycle;Signal;HPM_P1;HPM_P2
2023/05/12 00:00:57;;;;;;;3.80;3.50;;;14.80;99.90;;;-141.84;54.48;20496.78;5046728;28;20209;-51
2023/05/12 00:03:25;;;;;;;4.28;3.15;;;14.80;99.90;;;-141.84;54.81;20490.66;5053490;28;20630;-54
2023/05/12 00:05:54;;;;;;;4.88;3.63;;;14.70;99.90;;;-141.84;54.68;20480.50;5053953;28;20197;-54
2023/05/12 00:08:22;;;;;;;4.80;3.60;;;14.70;99.90;;;-141.84;54.62;20488.63;5053750;28;20661;-57
2023/05/12 00:10:50;;;;;;;3.70;3.22;;;14.70;99.90;;;-141.84;54.97;20484.56;5044770;28;20206;-54
2023/05/12 00:13:22;;;;;;;4.10;3.80;;;14.70;99.90;;;-141.84;54.89;20474.41;5046907;28;20202;-57
2023/05/12 00:15:53;;;;;;;3.55;3.25;;;14.70;99.90;;;-141.84;54.83;20470.34;5046991;28;20616;-55
2023/05/12 00:18:23;;;;;;;3.70;3.40;;;14.70;99.90;;;-141.84;55.37;20429.69;5052826;28;20280;-54
2023/05/12 00:20:52;;;;;;;3.85;3.40;;;14.50;99.90;;;-141.84;55.37;20472.38;5053293;28;20292;-50
2023/05/12 00:23:21;;;;;;;3.88;3.42;;;14.60;99.90;;;-141.84;55.34;20450.03;5053793;28;20205;-56
2023/05/12 00:25:50;;;;;;;3.53;3.22;;;14.60;99.90;;;-141.84;55.80;20452.06;5053641;28;20284;-55
2023/05/12 00:28:20;;;;;;;5.22;3.50;;;14.60;99.90;;;-141.84;55.50;20460.19;5035469;28;20410;-57
2023/05/12 00:30:48;;;;;;;3.40;3.10;;;14.60;99.90;;;-141.84;55.72;20423.59;5039769;28;20214;-49
2023/05/12 00:33:16;;;;;;;4.18;3.60;;;14.60;99.90;;;-141.84;55.46;20474.41;5032641;28;20209;-55
2023/05/12 00:35:46;;;;;;;4.20;3.65;;;14.50;99.90;;;-141.84;55.54;20476.44;5033335;28;20225;-56
2023/05/12 00:38:14;;;;;;;3.50;3.20;;;14.50;99.90;;;-141.84;55.67;20435.78;5033514;28;20206;-55
2023/05/12 00:40:43;;;;;;;4.53;3.42;;;14.50;99.90;;;-141.84;56.24;20474.41;5032868;28;20214;-55
2023/05/12 00:43:11;;;;;;;4.13;3.72;;;14.50;99.90;;;-141.84;56.39;20456.13;5033359;28;20206;-54
2023/05/12 00:45:39;;;;;;;4.18;3.67;;;14.50;99.90;;;-141.84;57.41;20401.22;5033424;28;20202;-55
2023/05/12 00:48:08;;;;;;;4.30;3.90;;;14.50;99.90;;;-141.84;57.33;20417.50;5032346;28;20234;-54
2023/05/12 00:50:37;;;;;;;4.38;3.60;;;14.50;99.90;;;-141.84;56.70;20464.25;5052775;28;20198;-53
2023/05/12 00:53:07;;;;;;;3.97;3.58;;;14.50;99.90;;;-141.84;56.98;20470.34;5052702;28;20209;-53
2023/05/12 00:55:36;;;;;;;3.80;3.50;;;14.50;99.90;;;-141.84;58.04;20419.53;5052427;28;20678;-55
2023/05/12 00:58:05;;;;;;;3.78;3.47;;;14.50;99.90;;;-141.84;58.18;20439.84;5036552;28;20209;-56
2023/05/12 01:00:33;;;;;;;3.70;3.40;;;14.40;99.90;;;-141.84;58.49;20380.91;5043125;28;20700;-55
2023/05/12 01:03:01;;;;;;;3.70;3.30;;;14.40;99.90;;;-141.84;57.98;20427.66;5051737;28;20699;-55
2023/05/12 01:05:36;;;;;;;3.92;3.60;;;14.40;99.90;;;-141.84;57.59;20452.06;5052717;28;20197;-53
2023/05/12 01:08:07;;;;;;;4.65;3.63;;;14.50;99.90;;;-141.84;58.74;20439.84;5053012;28;20189;-54
2023/05/12 01:10:36;;;;;;;3.90;3.60;;;14.40;99.90;;;-141.84;59.16;20395.13;5052481;28;20241;-52
2023/05/12 01:13:04;;;;;;;3.95;3.65;;;14.30;99.90;;;-141.84;58.98;20407.34;5052647;28;20228;-53
2023/05/12 01:15:33;;;;;;;3.80;3.50;;;14.30;99.90;;;-141.84;59.32;20423.59;5050019;28;20221;-56
2023/05/12 01:18:05;;;;;;;4.50;3.90;;;14.30;99.90;;;-141.84;58.47;20437.81;5051980;28;20263;-55
2023/05/12 01:20:34;;;;;;;4.07;3.67;;;14.30;99.90;;;-141.84;58.19;20397.16;5052265;28;20681;-55
2023/05/12 01:23:04;;;;;;;4.22;3.83;;;14.30;99.90;;;-141.84;58.58;20415.47;5052556;28;20206;-55
2023/05/12 01:25:34;;;;;;;5.20;3.83;;;14.30;99.90;;;-141.84;59.10;20409.38;5052227;28;20201;-55
2023/05/12 01:28:05;;;;;;;3.45;3.25;;;14.30;99.90;;;-141.84;58.93;20380.91;5051299;28;20602;-54
2023/05/12 01:30:34;;;;;;;5.50;3.58;;;14.30;99.90;;;-141.84;57.92;20409.38;5047990;28;20199;-53
2023/05/12 01:33:03;;;;;;;3.80;3.50;;;14.30;99.90;;;-141.84;59.42;20419.53;5031661;28;20571;-54
2023/05/12 01:35:31;;;;;;;4.00;3.60;;;14.30;99.90;;;-141.84;59.01;20397.16;5032394;28;20596;-53
2023/05/12 01:37:59;;;;;;;4.72;3.78;;;14.30;99.90;;;-141.84;58.52;20445.94;5032588;28;20201;-53
2023/05/12 01:40:28;;;;;;;4.20;3.80;;;14.20;99.90;;;-141.84;57.95;20441.88;5031863;28;20194;-55
2023/05/12 01:42:56;;;;;;;4.30;3.90;;;14.30;99.90;;;-141.84;58.37;20425.63;5032133;28;20206;-53
2023/05/12 01:45:25;;;;;;;4.03;3.72;;;14.30;99.90;;;-141.84;59.14;20393.09;5031686;28;20202;-54
2023/05/12 01:47:53;;;;;;;4.53;3.83;;;14.20;99.90;;;-141.84;58.37;20380.91;5031036;28;20230;-51
2023/05/12 01:50:21;;;;;;;5.13;3.78;;;14.20;99.90;;;-141.84;58.06;20417.50;5049294;28;20206;-55
2023/05/12 01:52:50;;;;;;;4.53;3.92;;;14.20;99.90;;;-141.84;57.64;20380.91;5051440;28;20209;-54
2023/05/12 01:55:18;;;;;;;6.22;3.28;;;14.30;99.90;;;-141.84;57.78;20415.47;5051926;28;20225;-53
2023/05/12 01:57:46;;;;;;;4.13;3.65;;;14.20;99.90;;;-141.84;58.25;20409.38;5050895;28;20213;-56
2023/05/12 02:00:15;;;;;;;5.65;3.75;;;14.20;99.90;;;-141.84;59.00;20405.31;5051759;28;20205;-56
2023/05/12 02:02:45;;;;;;;4.63;4.18;;;14.20;99.90;;;-141.84;57.82;20378.88;5050987;28;20205;-54
2023/05/12 02:05:13;;;;;;;6.03;4.03;;;14.20;99.90;;;-141.84;58.12;20380.91;5051148;28;20228;-56
2023/05/12 02:07:41;;;;;;;3.65;3.35;;;14.20;99.90;;;-141.84;58.02;20421.56;5052121;28;20259;-55
2023/05/12 02:10:10;;;;;;;4.57;4.05;;;14.20;99.90;;;-141.84;57.33;20382.94;5051892;28;20200;-55
2023/05/12 02:12:38;;;;;;;4.30;3.67;;;14.20;99.90;;;-141.84;57.22;20387.00;5036028;28;20551;-55
2023/05/12 02:15:07;;;;;;;4.07;3.63;;;14.20;99.90;;;-141.84;59.25;20411.41;5038962;28;20201;-54
2023/05/12 02:17:36;;;;;;;4.10;3.67;;;14.20;99.90;;;-141.84;59.90;20387.00;5050826;28;20212;-54
2023/05/12 02:20:07;;;;;;;3.80;3.50;;;14.30;99.90;;;-141.84;60.78;20378.88;5051559;28;20687;-53
2023/05/12 02:22:35;;;;;;;3.85;3.50;;;14.10;99.90;;;-141.84;61.34;20348.38;5051640;28;20182;-52
2023/05/12 02:25:05;;;;;;;4.10;3.70;;;14.10;99.90;;;-141.84;61.97;20344.31;5051731;28;20205;-54
2023/05/12 02:27:33;;;;;;;4.15;3.45;;;14.10;99.90;;;-141.84;62.30;20305.69;5049168;28;20701;-54
2023/05/12 02:30:01;;;;;;;4.57;3.90;;;14.00;99.90;;;-141.84;62.67;20356.50;5051551;28;20209;-53
2023/05/12 02:32:29;;;;;;;4.30;3.85;;;14.00;99.90;;;-141.84;62.38;20344.31;5050365;28;20679;-52
2023/05/12 02:34:58;;;;;;;4.30;3.90;;;13.90;99.90;;;-141.84;62.06;20340.25;5051167;28;20669;-49
2023/05/12 02:37:27;;;;;;;4.35;3.90;;;13.90;99.90;;;-141.84;59.65;20374.81;5050987;28;20220;-55
2023/05/12 02:39:55;;;;;;;4.22;3.70;;;14.00;99.90;;;-141.84;60.16;20313.84;5050991;28;20210;-52
2023/05/12 02:42:23;;;;;;;4.35;3.95;;;14.00;99.90;;;-141.84;59.74;20350.41;5031543;28;20209;-51
2023/05/12 02:44:51;;;;;;;5.13;3.97;;;14.00;99.90;;;-141.84;59.17;20368.72;5031348;28;20201;-54
2023/05/12 02:47:20;;;;;;;4.15;3.72;;;14.00;99.90;;;-141.84;59.76;20346.34;5030390;28;20206;-53
2023/05/12 02:49:48;;;;;;;5.00;4.45;;;14.00;99.90;;;-141.84;59.24;20376.84;5044055;28;20229;-57
2023/05/12 02:52:16;;;;;;;4.53;4.13;;;14.00;99.90;;;-141.84;59.49;20382.94;5051226;28;20198;-55
2023/05/12 02:54:45;;;;;;;4.15;3.85;;;14.10;99.90;;;-141.84;59.15;20393.09;5051172;28;20692;-72
2023/05/12 02:57:13;;;;;;;5.03;4.28;;;14.10;99.90;;;-141.84;58.31;20387.00;5050266;28;20248;-72
2023/05/12 02:59:41;;;;;;;4.35;3.95;;;14.10;99.90;;;-141.84;58.68;20382.94;5051330;28;20205;-73
2023/05/12 03:02:10;;;;;;;4.80;4.40;;;14.20;99.90;;;-141.84;59.33;20389.03;5050416;28;20201;-71
2023/05/12 03:04:38;;;;;;;4.82;4.43;;;14.10;99.90;;;-141.84;58.92;20384.97;5044272;28;20209;-72
2023/05/12 03:07:06;;;;;;;4.65;4.25;;;14.20;99.90;;;-141.84;59.21;20362.63;5045147;28;20772;-71
2023/05/12 03:09:35;;;;;;;6.03;4.07;;;14.10;99.90;;;-141.84;59.91;20346.34;5050927;28;20209;-71
2023/05/12 03:12:05;;;;;;;4.47;4.07;;;14.10;99.90;;;-141.84;60.42;20344.31;5050899;28;20202;-68
2023/05/12 03:14:33;;;;;;;4.55;4.15;;;14.00;99.90;;;-141.84;60.84;20289.44;5051191;28;20546;-71
2023/05/12 03:17:01;;;;;;;4.97;4.53;;;13.90;99.90;;;-141.84;60.06;20362.63;5051400;28;20229;-70
2023/05/12 03:19:29;;;;;;;4.30;3.90;;;13.90;99.90;;;-141.84;59.88;20350.41;5054805;28;20202;-71
2023/05/12 03:21:57;;;;;;;5.28;4.35;;;13.90;99.90;;;-141.84;60.22;20376.84;5054822;28;20210;-71
2023/05/12 03:24:26;;;;;;;5.18;4.68;;;13.90;99.90;;;-141.84;60.84;20332.13;5039044;28;20221;-70
2023/05/12 03:26:54;;;;;;;4.82;4.43;;;13.90;99.90;;;-141.84;60.19;20332.13;5040386;28;20210;-70
2023/05/12 03:29:24;;;;;;;5.60;4.25;;;13.90;99.90;;;-141.84;59.82;20344.31;5054899;28;20553;-54
2023/05/12 03:31:53;;;;;;;4.72;4.30;;;13.90;99.90;;;-141.84;60.13;20330.09;5053434;28;20201;-55
2023/05/12 03:34:21;;;;;;;4.93;4.53;;;13.90;99.90;;;-141.84;61.15;20321.97;5054241;28;20209;-56
2023/05/12 03:36:49;;;;;;;5.03;4.63;;;13.80;99.90;;;-141.84;61.10;20338.22;5054439;28;20225;-55
2023/05/12 03:39:17;;;;;;;5.90;4.38;;;13.80;99.90;;;-141.84;61.12;20324.00;5054519;28;20201;-55
2023/05/12 03:41:46;;;;;;;6.35;4.75;;;13.80;99.90;;;-141.84;61.47;20299.59;5038312;28;20202;-55
2023/05/12 03:44:14;;;;;;;6.40;4.60;;;13.80;99.90;;;-141.84;61.44;20263.00;5038979;28;20201;-58
2023/05/12 03:46:44;;;;;;;6.38;4.78;;;13.70;99.90;;;-141.84;61.59;20291.47;5053844;28;20208;-55
2023/05/12 03:49:12;;;;;;;4.97;4.50;;;13.70;99.90;;;-141.84;61.23;20277.25;5045548;28;20308;-56
2023/05/12 03:51:41;;;;;;;5.15;4.65;;;13.70;99.90;;;-141.84;60.70;20293.50;5040740;28;20194;-53
2023/05/12 03:54:09;;;;;;;7.05;5.30;;;13.70;99.90;;;-141.84;59.50;20321.97;5054343;28;20221;-54
2023/05/12 03:56:37;;;;;;;5.97;4.95;;;13.80;99.90;;;-141.84;59.74;20334.16;5033946;28;20316;-55
2023/05/12 03:59:05;;;;;;;5.30;4.80;;;13.80;99.90;;;-141.84;60.15;20330.09;5034070;28;20210;-54
2023/05/12 04:01:34;;;;;;;4.63;4.20;;;13.90;99.90;;;-141.84;60.14;20297.56;5033521;28;20202;-58
2023/05/12 04:04:04;;;;;;;5.65;5.15;;;13.90;99.90;;;-141.84;59.45;20326.03;5041838;28;20236;-56
2023/05/12 04:06:32;;;;;;;4.70;4.30;;;13.90;99.90;;;-141.84;59.25;20370.75;5055200;28;20570;-58
2023/05/12 04:09:01;;;;;;;5.15;4.65;;;13.90;99.90;;;-141.84;59.13;20344.31;5053931;28;20209;-55
2023/05/12 04:11:29;;;;;;;5.68;4.75;;;14.00;99.90;;;-141.84;59.46;20356.50;5052911;28;20214;-55
2023/05/12 04:13:57;;;;;;;7.47;5.22;;;14.00;99.90;;;-141.84;59.23;20334.16;5053961;28;20201;-57
2023/05/12 04:16:25;;;;;;;6.53;5.15;;;14.00;99.90;;;-141.84;59.08;20362.63;5035010;28;20403;-56
2023/05/12 04:18:53;;;;;;;5.60;5.10;;;14.00;99.90;;;-141.84;59.10;20376.84;5034022;28;20209;-55
2023/05/12 04:21:23;;;;;;;5.40;4.90;;;14.10;99.90;;;-141.84;59.24;20395.13;5045119;28;20631;-54
2023/05/12 04:23:52;;;;;;;5.80;5.30;;;14.10;99.90;;;-141.84;58.41;20346.34;5050218;28;20209;-54
2023/05/12 04:26:20;;;;;;;5.97;5.43;;;14.10;99.90;;;-141.84;58.69;20370.75;5047478;28;20217;-56
2023/05/12 04:28:49;;;;;;;6.88;5.43;;;14.10;99.90;;;-141.84;58.38;20435.78;5046794;28;20216;-53
2023/05/12 04:31:17;;;;;;;5.60;5.10;;;14.20;99.90;;;-141.84;58.37;20401.22;5053034;28;20212;-56
2023/05/12 04:33:45;;;;;;;9.13;5.65;;;14.20;99.90;;;-141.84;57.94;20419.53;5052924;28;20201;-57
2023/05/12 04:36:15;;;;;;;5.85;5.18;;;14.30;99.90;;;-141.84;58.61;20421.56;5050990;28;20590;-55
2023/05/12 04:38:45;;;;;;;6.53;5.82;;;14.20;99.90;;;-141.84;58.44;20391.06;5043289;28;20662;-55
2023/05/12 04:41:13;;;;;;;6.40;5.50;;;14.20;99.90;;;-141.84;58.54;20399.19;5052035;28;20235;-53
2023/05/12 04:43:41;;;;;;;6.10;5.57;;;14.20;99.90;;;-141.84;58.59;20407.34;5053232;28;20209;-55
2023/05/12 04:46:13;;;;;;;8.57;6.28;;;14.20;99.90;;;-141.84;58.52;20405.31;5059351;28;20231;-57
2023/05/12 04:48:42;;;;;;;6.25;5.65;;;14.20;99.90;;;-141.84;57.80;20431.72;5048805;28;20222;-56
2023/05/12 04:51:10;;;;;;;7.72;5.93;;;14.30;99.90;;;-141.84;57.90;20445.94;5035423;28;20224;-56
2023/05/12 04:53:38;;;;;;;7.30;6.18;;;14.30;99.90;;;-141.84;58.33;20427.66;5053033;28;20216;-55
2023/05/12 04:56:08;;;;;;;5.80;5.30;;;14.40;99.90;;;-141.84;58.23;20409.38;5053089;28;20201;-56
2023/05/12 04:58:37;;;;;;;6.97;5.93;;;14.40;99.90;;;-141.84;56.77;20466.28;5052540;28;20244;-55
2023/05/12 05:01:05;;;;;;;6.40;5.68;;;14.50;99.90;;;-141.84;58.00;20454.09;5052047;28;20422;-54
2023/05/12 05:03:34;;;;;;;6.70;6.10;;;14.60;99.90;;;-141.84;57.57;20445.94;5052350;28;20240;-56
2023/05/12 05:06:02;;;;;;;6.65;5.85;;;14.60;99.90;;;-141.84;57.53;20480.50;5052794;28;20251;-56
2023/05/12 05:08:30;;;;;;;7.15;6.45;;;14.70;99.90;;;-141.84;57.36;20511.00;5052882;28;20209;-55
2023/05/12 05:10:58;;;;;;;6.95;6.30;;;14.70;99.90;;;-141.84;57.17;20447.97;5045862;28;20217;-56
2023/05/12 05:13:28;;;;;;;8.05;6.53;;;14.70;99.90;;;-141.84;56.54;20498.81;5032476;28;20208;-55
2023/05/12 05:15:56;;;;;;;7.65;6.47;;;14.80;99.90;;;-141.84;56.71;20496.78;5038659;28;20763;-57
2023/05/12 05:18:24;;;;;;;8.68;6.25;;;14.90;99.90;;;-141.84;55.90;20551.66;5032657;28;20553;-56
2023/05/12 05:20:53;;;;;;;7.30;6.10;;;14.90;99.90;;;-141.84;56.16;20565.88;5032040;28;20198;-54
2023/05/12 05:23:26;;;;;;;7.80;6.25;;;15.00;99.90;;;-141.84;56.21;20511.00;5032776;28;20282;-54
2023/05/12 05:25:54;;;;;;;7.05;6.38;;;14.90;99.90;;;-141.84;56.05;20521.16;5032427;28;20212;-57
2023/05/12 05:28:23;;;;;;;7.50;6.50;;;15.00;99.90;;;-141.84;55.53;20541.50;5032723;28;20286;-55
2023/05/12 05:30:52;;;;;;;6.60;6.00;;;15.10;99.90;;;-141.84;56.01;20590.28;5031558;28;20201;-57
2023/05/12 05:33:20;;;;;;;7.43;6.72;;;15.10;99.90;;;-141.84;55.49;20541.50;5032766;28;20209;-53
2023/05/12 05:35:49;;;;;;;8.55;6.13;;;15.20;99.90;;;-141.84;55.57;20547.59;5052134;28;20209;-55
2023/05/12 05:38:17;;;;;;;6.72;6.13;;;15.20;99.90;;;-141.84;54.63;20565.88;5037187;28;20224;-55
2023/05/12 05:40:45;;;;;;;7.60;6.90;;;15.20;99.90;;;-141.84;53.95;20622.81;5031527;28;20210;-54
2023/05/12 05:43:21;;;;;;;6.88;6.20;;;15.40;99.90;;;-141.84;53.64;20657.34;5032604;28;20215;-55
2023/05/12 05:45:50;;;;;;;7.40;6.55;;;15.50;99.90;;;-141.84;53.60;20675.66;5031659;28;20205;-56
2023/05/12 05:48:19;;;;;;;7.43;6.70;;;15.60;99.90;;;-141.84;53.17;20683.78;5031849;28;20232;-57
2023/05/12 05:50:48;;;;;;;6.72;6.10;;;15.70;99.90;;;-141.84;53.34;20691.91;5040952;28;20205;-59
2023/05/12 05:53:17;;;;;;;7.15;6.45;;;15.80;99.90;;;-141.84;51.80;20726.47;5050640;28;20206;-56
2023/05/12 05:55:45;;;;;;;6.65;6.05;;;16.00;99.90;;;-141.84;52.15;20767.13;5051197;28;20576;-55
2023/05/12 05:58:14;;;;;;;9.57;6.72;;;16.10;99.90;;;-141.84;50.62;20822.03;5050739;28;20233;-57
2023/05/12 06:00:42;;;;;;;7.82;6.55;;;16.30;99.90;;;-141.84;51.30;20834.22;5051804;28;20201;-53
2023/05/12 06:03:11;;;;;;;8.32;6.53;;;16.50;99.90;;;-141.84;50.62;20848.44;5051174;28;20719;-52
2023/05/12 06:05:42;;;;;;;8.23;6.78;;;16.70;99.90;;;-141.84;51.14;20834.22;5051005;28;20683;-56
2023/05/12 06:08:12;;;;;;;9.70;6.90;;;16.70;99.90;;;-141.84;50.14;20880.97;5052029;28;20201;-56
2023/05/12 06:10:40;;;;;;;7.60;6.80;;;16.80;99.90;;;-141.84;50.42;20907.41;5051903;28;20209;-56
2023/05/12 06:13:09;;;;;;;8.73;6.60;;;16.90;99.90;;;-141.84;50.05;20941.97;5051511;28;20202;-56
2023/05/12 06:15:38;;;;;;;7.57;6.55;;;17.00;99.90;;;-141.84;50.13;20842.34;5040186;28;20198;-56
2023/05/12 06:18:06;;;;;;;7.65;6.78;;;17.10;99.90;;;-141.84;49.90;20944.00;5031318;28;20545;-54
2023/05/12 06:20:35;;;;;;;6.88;6.15;;;17.10;99.90;;;-141.84;49.61;20974.50;5031373;28;20277;-57
2023/05/12 06:23:05;;;;;;;8.25;6.40;;;17.30;99.90;;;-141.84;48.83;20976.53;5031672;28;20300;-56
2023/05/12 06:25:33;;;;;;;7.18;6.47;;;17.30;99.90;;;-141.84;48.81;21068.00;5031423;28;20197;-56
2023/05/12 06:28:02;;;;;;;6.93;6.32;;;17.50;99.90;;;-141.84;48.47;21045.63;5041180;28;20197;-55
2023/05/12 06:30:30;;;;;;;9.60;6.53;;;17.60;99.90;;;-141.84;47.72;21072.06;5050640;28;20201;-55
2023/05/12 06:32:58;;;;;;;7.22;6.53;;;17.90;99.90;;;-141.84;47.81;21063.94;5050256;28;20304;-56
2023/05/12 06:35:26;;;;;;;7.68;6.05;;;17.90;99.90;;;-141.84;47.40;21124.94;5050673;28;20664;-55
2023/05/12 06:37:55;;;;;;;8.93;6.55;;;18.00;99.90;;;-141.84;47.15;21129.00;5046469;28;20217;-57
2023/05/12 06:40:24;;;;;;;7.40;6.70;;;18.20;99.90;;;-141.84;46.68;21141.19;5043704;28;20205;-56
2023/05/12 06:42:52;;;;;;;6.85;6.15;;;18.20;99.90;;;-141.84;47.46;21171.69;5031182;28;20659;-56
2023/05/12 06:45:22;;;;;;;8.30;6.22;;;18.40;99.90;;;-141.84;46.10;21196.09;5031000;28;20202;-56
2023/05/12 06:47:50;;;;;;;7.35;6.50;;;18.60;99.90;;;-141.84;46.78;21185.91;5035358;28;20278;-57
2023/05/12 06:50:19;;;;;;;6.75;6.15;;;18.50;99.90;;;-141.84;46.43;21179.81;5033367;28;20241;-55
2023/05/12 06:52:47;;;;;;;9.77;6.40;;;18.60;99.90;;;-141.84;46.25;21171.69;5048820;28;20247;-55
2023/05/12 06:55:18;;;;;;;7.07;6.38;;;18.60;99.90;;;-141.84;46.08;21230.66;5055347;28;20586;-57
2023/05/12 06:57:50;;;;;;;6.95;6.13;;;18.70;99.90;;;-141.84;45.95;21208.28;5055216;28;20190;-55
2023/05/12 07:00:19;;;;;;;6.55;5.75;;;18.80;99.90;;;-141.84;46.46;21185.91;5054932;28;20208;-56
2023/05/12 07:02:47;;;;;;;10.07;6.28;;;18.70;99.90;;;-141.84;47.48;21183.88;5053505;28;20610;-58
2023/05/12 07:05:17;;;;;;;6.50;5.90;;;18.70;99.90;;;-141.84;46.21;21204.22;5054141;28;20666;-58
2023/05/12 07:07:46;;;;;;;6.72;6.00;;;18.70;99.90;;;-141.84;46.17;21214.38;5053133;28;20204;-57
2023/05/12 07:10:15;;;;;;;7.53;5.45;;;18.80;99.90;;;-141.84;46.17;21179.81;5041919;28;20194;-55
2023/05/12 07:12:43;;;;;;;7.35;5.95;;;18.80;99.90;;;-141.84;45.02;21196.09;5055030;28;20212;-55
2023/05/12 07:15:12;;;;;;;5.78;5.25;;;18.70;99.90;;;-141.84;45.41;21157.47;5054736;28;20205;-55
2023/05/12 07:17:41;;;;;;;6.15;5.53;;;18.60;99.90;;;-141.84;44.74;21202.19;5054472;28;20208;-56
2023/05/12 07:20:10;;;;;;;5.85;5.22;;;18.70;99.90;;;-141.84;44.34;21135.09;5054485;28;20225;-55
2023/05/12 07:22:38;;;;;;;6.00;4.90;;;18.50;99.90;;;-141.84;44.23;21131.03;5054956;28;20205;-54
2023/05/12 07:25:07;;;;;;;6.57;4.93;;;18.40;99.90;;;-141.84;45.42;21074.09;5054882;28;20292;-55
2023/05/12 07:27:36;;;;;;;5.60;4.53;;;18.20;99.90;;;-141.84;45.05;21045.63;5054718;28;20205;-57
2023/05/12 07:30:05;;;;;;;5.47;5.00;;;18.20;99.90;;;-141.84;45.50;21035.47;5053622;28;20193;-54
2023/05/12 07:32:35;;;;;;;5.05;4.53;;;18.10;99.90;;;-141.84;45.62;21045.63;5053468;28;20673;-57
2023/05/12 07:35:04;;;;;;;5.60;4.78;;;18.10;99.90;;;-141.84;46.12;21041.56;5049619;28;20293;-56
2023/05/12 07:37:32;;;;;;;5.57;5.05;;;18.10;99.90;;;-141.84;47.08;21061.91;5054605;28;20206;-57
2023/05/12 07:40:01;;;;;;;6.25;4.85;;;18.10;99.90;;;-141.84;46.37;21072.06;5054728;28;20233;-56
2023/05/12 07:42:29;;;;;;;5.38;4.53;;;18.20;99.90;;;-141.84;45.59;21141.19;5054160;28;20212;-54
2023/05/12 07:44:57;;;;;;;4.95;4.32;;;18.30;99.90;;;-141.84;44.64;21104.59;5054133;28;20309;-57
2023/05/12 07:47:27;;;;;;;8.02;5.22;;;18.40;99.90;;;-141.84;44.79;21126.97;5054263;28;20308;-56
2023/05/12 07:49:57;;;;;;;6.20;5.25;;;18.40;99.90;;;-141.84;45.08;21143.22;5039695;28;20194;-56
2023/05/12 07:52:25;;;;;;;6.85;4.63;;;18.40;99.90;;;-141.84;44.46;21147.28;5046687;28;20573;-56
2023/05/12 07:54:55;;;;;;;5.65;4.65;;;18.40;99.90;;;-141.84;44.62;21179.81;5054100;28;20201;-58
2023/05/12 07:57:23;;;;;;;5.50;4.95;;;18.40;99.90;;;-141.84;44.96;21122.91;5054398;28;20209;-57
2023/05/12 07:59:51;;;;;;;4.90;4.40;;;18.40;99.90;;;-141.84;44.82;21187.97;5053841;28;20697;-57
2023/05/12 08:02:20;;;;;;;6.90;4.78;;;18.50;99.90;;;-141.84;44.32;21167.63;5053893;28;20298;-55
2023/05/12 08:04:48;;;;;;;6.60;4.22;;;18.60;99.90;;;-141.84;43.80;21175.75;5040241;28;20453;-56
2023/05/12 08:07:17;;;;;;;5.00;4.50;;;18.70;99.90;;;-141.84;43.39;21238.78;5033881;28;20210;-58
2023/05/12 08:09:45;;;;;;;4.78;4.38;;;18.80;99.90;;;-141.84;44.05;21242.84;5036518;28;20212;-57
2023/05/12 08:12:13;;;;;;;7.45;4.22;;;18.80;99.90;;;-141.84;43.07;21224.56;5053785;28;20703;-59
2023/05/12 08:14:42;;;;;;;4.97;4.40;;;18.80;99.90;;;-141.84;43.03;21192.03;5054030;28;20213;-56
2023/05/12 08:17:10;;;;;;;6.47;4.20;;;18.90;99.90;;;-141.84;43.27;21214.38;5053602;28;20205;-55
2023/05/12 08:19:38;;;;;;;6.18;4.55;;;18.80;99.90;;;-141.84;43.26;21192.03;5053647;28;20225;-56
2023/05/12 08:22:06;;;;;;;4.70;4.25;;;18.80;99.90;;;-141.84;42.80;21244.88;5053433;28;20197;-56
2023/05/12 08:24:36;;;;;;;4.88;4.15;;;18.90;99.90;;;-141.84;43.03;21265.22;5053373;28;20203;-55
2023/05/12 08:27:05;;;;;;;4.93;3.92;;;19.00;99.90;;;-141.84;42.27;21291.66;5053464;28;20201;-53
2023/05/12 08:29:33;;;;;;;5.93;4.25;;;19.00;99.90;;;-141.84;41.93;21289.59;5053616;28;20204;-55
2023/05/12 08:32:02;;;;;;;4.65;3.88;;;19.20;99.90;;;-141.84;41.20;21320.09;5053463;28;20216;-57
2023/05/12 08:34:31;;;;;;;6.00;4.30;;;19.20;99.90;;;-141.84;42.61;21283.50;5053293;28;20208;-55
2023/05/12 08:36:59;;;;;;;5.25;4.50;;;19.20;99.90;;;-141.84;43.28;21287.56;5053302;28;20232;-57
2023/05/12 08:39:29;;;;;;;4.63;4.15;;;19.30;99.90;;;-141.84;41.78;21336.38;5053170;28;20221;-57
2023/05/12 08:42:12;;;;;;;6.32;4.47;;;19.30;99.90;;;-141.84;42.20;21311.97;5046908;28;20593;-58
2023/05/12 08:44:40;;;;;;;5.18;4.35;;;19.30;99.90;;;-141.84;40.87;21309.94;5053191;28;20192;-54
2023/05/12 08:47:11;;;;;;;6.47;4.30;;;19.40;99.90;;;-141.84;41.60;21358.75;5052715;28;20220;-59
2023/05/12 08:49:42;;;;;;;4.65;4.10;;;19.40;99.90;;;-141.84;40.87;21352.63;5052264;28;20445;-56
2023/05/12 08:52:17;;;;;;;4.80;4.40;;;19.40;99.90;;;-141.84;41.21;21379.06;5052634;28;20196;-57
2023/05/12 08:54:46;;;;;;;6.68;4.03;;;19.40;99.90;;;-141.84;40.74;21354.66;5052960;28;20181;-59
2023/05/12 08:57:26;;;;;;;5.53;3.88;;;19.50;99.90;;;-141.84;40.72;21358.75;5052580;28;20279;-55
2023/05/12 08:59:58;;;;;;;6.35;4.10;;;19.50;99.90;;;-141.84;40.00;21375.00;5053191;28;20304;-56
2023/05/12 09:02:30;;;;;;;4.75;4.30;;;19.60;99.90;;;-141.84;40.81;21383.13;5033352;28;20214;-53
2023/05/12 09:05:15;;;;;;;4.43;4.00;;;19.70;99.90;;;-141.84;40.82;21375.00;5033870;28;20194;-58
2023/05/12 09:07:44;;;;;;;5.18;4.03;;;19.70;99.90;;;-141.84;40.73;21395.34;5033500;28;20206;-55
2023/05/12 09:10:18;;;;;;;7.95;4.32;;;19.70;99.90;;;-141.84;40.96;21436.00;5039695;28;20205;-57
2023/05/12 09:13:13;;;;;;;7.10;4.18;;;19.80;99.90;;;-141.84;41.65;21413.63;5052935;28;20190;-57
2023/05/12 09:15:45;;;;;;;5.07;4.00;;;19.80;99.90;;;-141.84;39.82;21464.47;5052734;28;20206;-54
2023/05/12 09:18:13;;;;;;;5.75;4.43;;;19.90;99.90;;;-141.84;39.69;21470.56;5052289;28;20212;-53
2023/05/12 09:20:42;;;;;;;4.78;4.20;;;20.00;99.90;;;-141.84;39.83;21501.06;5053094;28;20239;-58
2023/05/12 09:23:19;;;;;;;4.95;3.78;;;20.00;99.90;;;-141.84;38.79;21472.59;5052949;28;20689;-56
2023/05/12 09:25:58;;;;;;;6.00;4.07;;;20.00;99.90;;;-141.84;39.18;21509.19;5053378;28;20197;-56
2023/05/12 09:28:37;;;;;;;7.53;4.22;;;20.00;99.90;;;-141.84;39.06;21515.28;5053012;28;20181;-53
2023/05/12 09:31:16;;;;;;;5.35;3.97;;;20.10;99.90;;;-141.84;38.48;21507.16;5052891;28;20268;-56
2023/05/12 09:33:44;;;;;;;7.10;4.20;;;20.20;99.90;;;-141.84;38.80;21537.66;5052744;28;20250;-55
2023/05/12 09:36:17;;;;;;;5.20;4.22;;;20.30;99.90;;;-141.84;38.80;21513.25;5053116;28;20201;-55
2023/05/12 09:38:45;;;;;;;4.28;3.88;;;20.30;99.90;;;-141.84;37.76;21531.56;5052631;28;20190;-55
2023/05/12 09:41:13;;;;;;;3.70;3.40;;;20.20;99.90;;;-141.84;37.71;21494.97;5045522;28;20563;-56
2023/05/12 09:43:46;;;;;;;5.38;3.90;;;20.20;99.90;;;-141.84;38.23;21488.88;5033044;28;20202;-57
2023/05/12 09:46:14;;;;;;;5.40;4.00;;;20.20;99.90;;;-141.84;37.21;21543.75;5032920;28;20208;-53
2023/05/12 09:48:43;;;;;;;4.20;3.80;;;20.20;99.90;;;-141.84;37.60;21499.03;5036255;28;20229;-56
2023/05/12 09:51:11;;;;;;;4.00;3.58;;;20.20;99.90;;;-141.84;37.32;21505.13;5043815;28;20205;-55
2023/05/12 09:53:43;;;;;;;5.47;3.75;;;20.20;99.90;;;-141.84;37.50;21523.44;5046275;28;20220;-56
2023/05/12 09:56:13;;;;;;;4.07;3.67;;;20.20;99.90;;;-141.84;38.08;21541.72;5045559;28;20194;-56
2023/05/12 09:58:44;;;;;;;4.82;3.90;;;20.30;99.90;;;-141.84;38.46;21566.13;5050907;28;20205;-55
2023/05/12 10:01:16;;;;;;;6.53;4.32;;;20.40;99.90;;;-141.84;38.34;21578.31;5031852;28;20210;-52
2023/05/12 10:03:54;;;;;;;4.53;4.13;;;20.40;99.90;;;-141.84;38.12;21625.09;5032369;28;20221;-53
2023/05/12 10:06:27;;;;;;;4.30;3.85;;;20.60;99.90;;;-141.84;37.70;21566.13;5051784;28;20190;-54
2023/05/12 10:09:06;;;;;;;3.92;3.58;;;20.60;99.90;;;-141.84;38.12;21574.25;5051699;28;20527;-56
2023/05/12 10:11:35;;;;;;;4.65;3.50;;;20.50;99.90;;;-141.84;38.53;21584.44;5051839;28;20194;-55
2023/05/12 10:14:06;;;;;;;7.32;4.93;;;20.50;99.90;;;-141.84;38.34;21564.09;5049684;28;20205;-55